createdAt,value
2022-10-23T00:01:28.313Z,10.34
2022-10-23T00:03:58.459Z,10.27
2022-10-23T00:06:27.392Z,10.25
2022-10-23T00:08:56.232Z,10.39
2022-10-23T00:11:28.256Z,10.27
2022-10-23T00:13:58.738Z,10.06
2022-10-23T00:16:29.313Z,10.10
2022-10-23T00:18:58.191Z,9.91
2022-10-23T00:21:27.404Z,10.05
2022-10-23T00:23:56.214Z,10.12
2022-10-23T00:26:24.850Z,10.17
2022-10-23T00:28:55.726Z,10.18
2022-10-23T00:31:25.917Z,10.04
2022-10-23T00:33:55.457Z,9.89
2022-10-23T00:36:24.406Z,10.20
2022-10-23T00:38:53.796Z,9.81
2022-10-23T00:41:26.449Z,9.93
2022-10-23T00:44:09.221Z,9.81
2022-10-23T00:46:38.920Z,9.82
2022-10-23T00:49:09.621Z,9.74
2022-10-23T00:51:41.126Z,9.80
2022-10-23T00:54:26.081Z,9.90
2022-10-23T00:56:58.153Z,9.94
2022-10-23T00:59:26.525Z,9.75
2022-10-23T01:01:54.703Z,9.82
2022-10-23T01:04:26.584Z,9.96
2022-10-23T01:07:03.722Z,9.90
2022-10-23T01:09:39.112Z,9.90
2022-10-23T01:12:16.705Z,9.90
2022-10-23T01:14:56.474Z,10.11
2022-10-23T01:17:31.881Z,10.19
2022-10-23T01:20:20.860Z,10.37
2022-10-23T01:23:13.786Z,10.09
2022-10-23T01:26:06.844Z,10.09
2022-10-23T01:28:45.409Z,10.12
2022-10-23T01:31:19.790Z,10.24
2022-10-23T01:33:55.170Z,9.59
2022-10-23T01:36:28.627Z,10.05
2022-10-23T01:39:01.486Z,9.88
2022-10-23T01:41:33.999Z,9.89
2022-10-23T01:44:10.660Z,9.92
2022-10-23T01:46:38.908Z,10.03
2022-10-23T01:49:10.607Z,10.21
2022-10-23T01:51:41.308Z,9.87
2022-10-23T01:54:14.897Z,9.73
2022-10-23T01:56:48.159Z,9.67
2022-10-23T01:59:22.460Z,9.78
2022-10-23T02:01:54.967Z,9.71
2022-10-23T02:04:28.630Z,9.19
2022-10-23T02:06:57.506Z,9.43
2022-10-23T02:09:26.314Z,9.59
2022-10-23T02:11:58.804Z,9.79
2022-10-23T02:14:38.510Z,9.80
2022-10-23T02:17:16.741Z,10.10
2022-10-23T02:19:51.340Z,9.61
2022-10-23T02:22:24.772Z,9.79
2022-10-23T02:24:57.818Z,10.09
2022-10-23T02:27:33.494Z,10.09
2022-10-23T02:30:06.786Z,9.96
2022-10-23T02:32:37.167Z,10.00
2022-10-23T02:35:06.264Z,10.10
2022-10-23T02:37:34.844Z,10.14
2022-10-23T02:40:05.505Z,10.21
2022-10-23T02:42:40.375Z,9.98
2022-10-23T02:45:16.539Z,9.43
2022-10-23T02:47:56.117Z,9.76
2022-10-23T02:50:34.145Z,9.86
2022-10-23T02:53:11.933Z,9.45
2022-10-23T02:55:55.423Z,9.30
2022-10-23T02:58:32.216Z,9.45
2022-10-23T03:01:09.998Z,9.61
2022-10-23T03:03:44.050Z,9.83
2022-10-23T03:06:13.644Z,9.57
2022-10-23T03:08:46.024Z,9.60
2022-10-23T03:11:14.847Z,9.82
2022-10-23T03:13:43.098Z,9.96
2022-10-23T03:16:13.109Z,9.80
2022-10-23T03:18:41.412Z,9.70
2022-10-23T03:21:10.994Z,10.04
2022-10-23T03:23:39.883Z,10.17
2022-10-23T03:26:08.833Z,9.79
2022-10-23T03:28:37.488Z,9.84
2022-10-23T03:31:05.980Z,10.08
2022-10-23T03:33:36.000Z,10.16
2022-10-23T03:36:04.900Z,9.92
2022-10-23T03:38:33.609Z,10.41
2022-10-23T03:41:01.796Z,10.29
2022-10-23T03:43:30.968Z,10.01
2022-10-23T03:46:01.216Z,10.82
2022-10-23T03:48:29.703Z,10.89
2022-10-23T03:50:59.514Z,10.88
2022-10-23T03:53:27.974Z,10.97
2022-10-23T03:55:56.455Z,11.06
2022-10-23T03:58:24.754Z,11.24
2022-10-23T04:00:53.146Z,11.30
2022-10-23T04:03:22.520Z,11.52
2022-10-23T04:05:52.309Z,11.55
2022-10-23T04:08:23.365Z,11.61
2022-10-23T04:10:51.728Z,11.70
2022-10-23T04:13:20.360Z,11.55
2022-10-23T04:15:53.118Z,11.04
2022-10-23T04:18:22.158Z,11.60
2022-10-23T04:20:50.874Z,11.28
2022-10-23T04:23:19.605Z,10.83
2022-10-23T04:25:49.148Z,10.70
2022-10-23T04:28:17.743Z,10.72
2022-10-23T04:30:46.670Z,10.74
2022-10-23T04:33:14.796Z,10.77
2022-10-23T04:35:43.403Z,10.93
2022-10-23T04:38:12.323Z,11.22
2022-10-23T04:40:40.677Z,11.26
2022-10-23T04:43:10.643Z,11.38
2022-10-23T04:45:39.400Z,11.53
2022-10-23T04:48:08.235Z,11.57
2022-10-23T04:50:37.066Z,11.25
2022-10-23T04:53:05.300Z,11.67
2022-10-23T04:55:34.409Z,11.97
2022-10-23T04:58:02.613Z,12.13
2022-10-23T05:00:33.311Z,12.25
2022-10-23T05:03:01.953Z,12.39
2022-10-23T05:05:30.268Z,12.37
2022-10-23T05:07:58.954Z,12.55
2022-10-23T05:10:27.284Z,12.87
2022-10-23T05:12:55.820Z,13.02
2022-10-23T05:15:24.806Z,13.12
2022-10-23T05:17:58.471Z,13.22
2022-10-23T05:20:31.303Z,13.34
2022-10-23T05:23:01.882Z,13.54
2022-10-23T05:25:32.913Z,13.67
2022-10-23T05:28:01.495Z,13.77
2022-10-23T05:30:29.897Z,13.87
2022-10-23T05:33:01.665Z,14.01
2022-10-23T05:35:33.706Z,14.13
2022-10-23T05:38:03.867Z,14.19
2022-10-23T05:40:32.267Z,14.41
2022-10-23T05:43:00.973Z,14.53
2022-10-23T05:45:29.060Z,14.78
2022-10-23T05:48:05.808Z,14.91
2022-10-23T05:50:48.136Z,14.96
2022-10-23T05:53:16.568Z,15.29
2022-10-23T05:55:44.583Z,15.25
2022-10-23T05:58:13.007Z,15.58
2022-10-23T06:00:41.801Z,15.74
2022-10-23T06:03:10.699Z,15.86
2022-10-23T06:08:09.981Z,16.09
2022-10-23T06:10:38.723Z,16.11
2022-10-23T06:13:07.369Z,16.38
2022-10-23T06:15:35.387Z,16.43
2022-10-23T06:18:04.264Z,16.29
2022-10-23T06:20:33.175Z,16.53
2022-10-23T06:23:02.316Z,16.69
2022-10-23T06:25:32.276Z,16.75
2022-10-23T06:28:00.447Z,16.87
2022-10-23T06:30:29.286Z,16.98
2022-10-23T06:32:57.603Z,17.09
2022-10-23T06:35:25.916Z,17.03
2022-10-23T06:37:54.162Z,17.26
2022-10-23T06:40:22.525Z,17.36
2022-10-23T06:42:52.168Z,17.58
2022-10-23T06:45:20.633Z,17.67
2022-10-23T06:47:51.899Z,17.86
2022-10-23T06:50:21.165Z,17.97
2022-10-23T06:52:49.614Z,18.06
2022-10-23T06:55:17.816Z,18.09
2022-10-23T06:57:46.253Z,18.27
2022-10-23T07:00:17.025Z,18.35
2022-10-23T07:02:46.904Z,18.48
2022-10-23T07:05:15.240Z,18.54
2022-10-23T07:07:44.129Z,18.58
2022-10-23T07:12:44.642Z,18.73
2022-10-23T07:15:13.322Z,18.84
2022-10-23T07:17:43.950Z,18.72
2022-10-23T07:20:12.546Z,18.84
2022-10-23T07:22:41.594Z,19.05
2022-10-23T07:25:10.482Z,19.11
2022-10-23T07:27:40.928Z,19.14
2022-10-23T07:30:10.808Z,19.36
2022-10-23T07:32:39.607Z,19.41
2022-10-23T07:35:11.105Z,19.49
2022-10-23T07:37:39.237Z,19.72
2022-10-23T07:40:10.562Z,19.77
2022-10-23T07:42:39.657Z,19.84
2022-10-23T07:45:08.971Z,19.98
2022-10-23T07:47:37.560Z,20.07
2022-10-23T07:50:06.483Z,20.17
2022-10-23T07:52:37.780Z,20.23
2022-10-23T07:55:07.555Z,20.36
2022-10-23T07:57:36.043Z,20.37
2022-10-23T08:00:06.240Z,20.54
2022-10-23T08:02:34.903Z,20.57
2022-10-23T08:05:03.057Z,20.82
2022-10-23T08:07:31.443Z,20.84
2022-10-23T08:10:01.145Z,20.89
2022-10-23T08:12:29.625Z,20.83
2022-10-23T08:14:57.680Z,20.90
2022-10-23T08:17:28.262Z,20.96
2022-10-23T08:19:56.829Z,21.11
2022-10-23T08:22:24.948Z,21.14
2022-10-23T08:24:53.050Z,21.07
2022-10-23T08:27:23.518Z,21.09
2022-10-23T08:29:51.946Z,21.09
2022-10-23T08:32:20.074Z,21.13
2022-10-23T08:34:48.304Z,21.19
2022-10-23T08:37:16.612Z,21.24
2022-10-23T08:39:44.947Z,21.31
2022-10-23T08:42:22.082Z,21.41
2022-10-23T08:45:01.241Z,21.47
2022-10-23T08:47:36.351Z,21.48
2022-10-23T08:50:09.073Z,21.59
2022-10-23T08:52:42.397Z,21.62
2022-10-23T08:55:19.459Z,21.66
2022-10-23T08:57:54.949Z,21.69
2022-10-23T09:00:24.401Z,21.71
2022-10-23T09:02:55.041Z,21.70
2022-10-23T09:05:29.493Z,21.80
2022-10-23T09:08:17.776Z,21.96
2022-10-23T09:10:58.746Z,22.07
2022-10-23T09:13:58.257Z,22.09
2022-10-23T09:16:42.680Z,22.13
2022-10-23T09:19:16.722Z,22.26
2022-10-23T09:21:47.055Z,22.35
2022-10-23T09:24:18.274Z,22.40
2022-10-23T09:26:49.766Z,22.44
2022-10-23T09:29:24.903Z,22.58
2022-10-23T09:31:56.877Z,22.60
2022-10-23T09:34:27.451Z,22.79
2022-10-23T09:36:57.899Z,22.87
2022-10-23T09:39:29.454Z,22.96
2022-10-23T09:41:58.463Z,23.08
2022-10-23T09:44:29.987Z,23.13
2022-10-23T09:47:01.965Z,23.13
2022-10-23T09:49:32.253Z,23.13
2022-10-23T09:52:07.295Z,23.16
2022-10-23T09:54:39.010Z,23.20
2022-10-23T09:57:21.463Z,23.30
2022-10-23T09:59:53.833Z,23.39
2022-10-23T10:02:29.317Z,23.44
2022-10-23T10:04:57.481Z,23.47
2022-10-23T10:07:30.207Z,23.48
2022-10-23T10:10:00.746Z,23.45
2022-10-23T10:12:51.170Z,23.34
2022-10-23T10:15:29.090Z,23.24
2022-10-23T10:18:11.823Z,23.31
2022-10-23T10:21:04.615Z,23.41
2022-10-23T10:23:39.197Z,23.47
2022-10-23T10:26:16.875Z,23.42
2022-10-23T10:29:03.453Z,23.48
2022-10-23T10:31:46.425Z,23.45
2022-10-23T10:34:29.856Z,23.57
2022-10-23T10:37:02.208Z,23.51
2022-10-23T10:39:39.840Z,23.71
2022-10-23T10:42:30.312Z,23.75
2022-10-23T10:45:19.576Z,23.79
2022-10-23T10:48:02.881Z,23.64
2022-10-23T10:50:41.760Z,23.70
2022-10-23T10:53:19.794Z,23.88
2022-10-23T10:55:53.482Z,24.00
2022-10-23T10:58:29.385Z,23.88
2022-10-23T11:01:01.686Z,24.03
2022-10-23T11:03:39.865Z,24.09
2022-10-23T11:06:16.897Z,24.16
2022-10-23T11:08:56.498Z,24.34
2022-10-23T11:11:32.193Z,24.34
2022-10-23T11:14:00.917Z,24.47
2022-10-23T11:16:32.992Z,24.30
2022-10-23T11:19:11.371Z,24.39
2022-10-23T11:21:46.302Z,24.38
2022-10-23T11:25:12.311Z,24.29
2022-10-23T11:28:08.540Z,24.18
2022-10-23T11:30:48.804Z,24.30
2022-10-23T11:33:57.528Z,24.24
2022-10-23T11:36:46.279Z,24.19
2022-10-23T11:39:23.786Z,24.19
2022-10-23T11:41:56.199Z,24.31
2022-10-23T11:44:40.621Z,24.35
2022-10-23T11:47:39.783Z,24.32
2022-10-23T11:50:27.588Z,24.28
2022-10-23T11:53:19.894Z,24.30
2022-10-23T11:56:05.263Z,24.43
2022-10-23T11:58:44.867Z,24.58
2022-10-23T12:01:38.327Z,24.69
2022-10-23T12:04:21.189Z,24.72
2022-10-23T12:06:52.227Z,24.66
2022-10-23T12:09:29.803Z,24.58
2022-10-23T12:12:15.907Z,24.64
2022-10-23T12:14:46.702Z,24.66
2022-10-23T12:17:40.255Z,24.82
2022-10-23T12:20:27.094Z,24.82
2022-10-23T12:23:28.655Z,24.93
2022-10-23T12:26:19.296Z,25.03
2022-10-23T12:28:55.441Z,25.01
2022-10-23T12:31:37.689Z,24.73
2022-10-23T12:34:20.080Z,24.64
2022-10-23T12:37:07.985Z,24.65
2022-10-23T12:39:37.812Z,24.65
2022-10-23T12:42:12.723Z,24.77
2022-10-23T12:44:41.605Z,24.65
2022-10-23T12:47:19.978Z,24.74
2022-10-23T12:49:50.442Z,24.75
2022-10-23T12:52:21.218Z,24.71
2022-10-23T12:54:50.886Z,24.81
2022-10-23T12:57:23.707Z,24.99
2022-10-23T12:59:54.426Z,24.73
2022-10-23T13:02:25.268Z,24.78
2022-10-23T13:04:56.174Z,24.92
2022-10-23T13:07:29.290Z,24.82
2022-10-23T13:09:59.333Z,24.70
2022-10-23T13:12:32.151Z,24.69
2022-10-23T13:15:03.737Z,24.50
2022-10-23T13:17:37.196Z,24.64
2022-10-23T13:20:27.827Z,24.83
2022-10-23T13:23:02.710Z,24.82
2022-10-23T13:25:33.342Z,24.79
2022-10-23T13:28:25.100Z,24.75
2022-10-23T13:31:06.339Z,24.83
2022-10-23T13:33:38.208Z,24.61
2022-10-23T13:36:20.871Z,24.46
2022-10-23T13:39:00.813Z,24.67
2022-10-23T13:41:30.875Z,24.79
2022-10-23T13:44:00.665Z,24.75
2022-10-23T13:46:29.579Z,24.63
2022-10-23T13:48:57.869Z,24.38
2022-10-23T13:51:28.667Z,24.38
2022-10-23T13:53:57.720Z,24.34
2022-10-23T13:56:28.499Z,24.32
2022-10-23T13:58:56.883Z,24.31
2022-10-23T14:01:29.377Z,24.39
2022-10-23T14:03:59.499Z,24.23
2022-10-23T14:06:27.935Z,24.25
2022-10-23T14:08:56.566Z,24.35
2022-10-23T14:11:25.078Z,24.29
2022-10-23T14:13:53.567Z,24.24
2022-10-23T14:16:22.391Z,24.20
2022-10-23T14:18:52.271Z,24.23
2022-10-23T14:21:22.267Z,24.19
2022-10-23T14:23:52.440Z,23.96
2022-10-23T14:26:22.278Z,24.00
2022-10-23T14:28:52.914Z,23.97
2022-10-23T14:31:21.270Z,23.98
2022-10-23T14:33:56.026Z,23.99
2022-10-23T14:36:28.247Z,23.97
2022-10-23T14:39:03.281Z,23.95
2022-10-23T14:41:31.443Z,23.78
2022-10-23T14:43:59.954Z,23.77
2022-10-23T14:46:29.566Z,23.66
2022-10-23T14:49:02.341Z,23.73
2022-10-23T14:51:31.939Z,23.58
2022-10-23T14:54:02.328Z,23.44
2022-10-23T14:56:32.842Z,23.44
2022-10-23T14:59:03.770Z,23.22
2022-10-23T15:01:32.292Z,23.13
2022-10-23T15:04:02.019Z,23.02
2022-10-23T15:06:30.671Z,22.96
2022-10-23T15:08:59.165Z,22.89
2022-10-23T15:11:28.142Z,22.80
2022-10-23T15:13:56.698Z,22.78
2022-10-23T15:16:25.560Z,22.69
2022-10-23T15:18:54.201Z,22.57
2022-10-23T15:21:24.537Z,22.53
2022-10-23T15:23:53.025Z,22.47
2022-10-23T15:26:23.307Z,22.38
2022-10-23T15:28:54.877Z,22.32
2022-10-23T15:31:54.601Z,22.27
2022-10-23T15:34:25.656Z,22.33
2022-10-23T15:36:57.503Z,22.30
2022-10-23T15:39:28.316Z,22.19
2022-10-23T15:41:57.955Z,21.95
2022-10-23T15:44:27.991Z,21.77
2022-10-23T15:46:58.089Z,21.67
2022-10-23T15:49:27.331Z,21.61
2022-10-23T15:51:57.263Z,21.60
2022-10-23T15:54:28.174Z,21.50
2022-10-23T15:56:59.239Z,21.53
2022-10-23T15:59:28.532Z,21.50
2022-10-23T16:01:57.258Z,21.47
2022-10-23T16:04:25.935Z,21.51
2022-10-23T16:06:54.087Z,21.58
2022-10-23T16:09:24.022Z,21.66
2022-10-23T16:11:52.417Z,21.73
2022-10-23T16:14:21.176Z,21.58
2022-10-23T16:16:49.762Z,21.65
2022-10-23T16:19:18.882Z,21.66
2022-10-23T16:21:47.212Z,21.61
2022-10-23T16:24:15.641Z,21.66
2022-10-23T16:26:50.455Z,21.52
2022-10-23T16:29:19.435Z,21.37
2022-10-23T16:31:48.029Z,21.44
2022-10-23T16:34:16.893Z,21.33
2022-10-23T16:36:45.582Z,21.42
2022-10-23T16:39:15.798Z,21.31
2022-10-23T16:41:45.588Z,21.30
2022-10-23T16:44:13.722Z,21.15
2022-10-23T16:46:42.310Z,21.17
2022-10-23T16:49:10.287Z,21.05
2022-10-23T16:51:38.594Z,21.00
2022-10-23T16:54:07.377Z,21.08
2022-10-23T16:56:35.562Z,21.03
2022-10-23T16:59:05.554Z,21.02
2022-10-23T17:01:34.495Z,20.38
2022-10-23T17:04:03.229Z,20.17
2022-10-23T17:06:33.634Z,20.41
2022-10-23T17:09:03.253Z,20.02
2022-10-23T17:11:34.181Z,19.88
2022-10-23T17:14:05.631Z,19.84
2022-10-23T17:16:36.310Z,19.81
2022-10-23T17:19:16.064Z,19.69
2022-10-23T17:21:49.877Z,19.71
2022-10-23T17:24:17.991Z,19.81
2022-10-23T17:26:46.906Z,19.77
2022-10-23T17:29:18.371Z,19.88
2022-10-23T17:31:48.211Z,19.96
2022-10-23T17:34:19.022Z,19.90
2022-10-23T17:36:50.013Z,20.08
2022-10-23T17:39:21.611Z,20.26
2022-10-23T17:41:50.769Z,20.13
2022-10-23T17:44:20.352Z,20.08
2022-10-23T17:46:53.664Z,20.17
2022-10-23T17:49:22.461Z,20.26
2022-10-23T17:51:52.934Z,20.23
2022-10-23T17:54:21.284Z,20.21
2022-10-23T17:56:49.864Z,20.19
2022-10-23T17:59:20.076Z,20.12
2022-10-23T18:01:49.675Z,19.99
2022-10-23T18:04:20.248Z,20.03
2022-10-23T18:06:50.767Z,19.91
2022-10-23T18:09:19.294Z,20.02
2022-10-23T18:11:48.936Z,19.88
2022-10-23T18:14:18.042Z,19.96
2022-10-23T18:16:48.529Z,19.84
2022-10-23T18:19:19.180Z,19.70
2022-10-23T18:21:47.736Z,19.76
2022-10-23T18:24:17.158Z,19.21
2022-10-23T18:26:48.256Z,19.69
2022-10-23T18:29:17.658Z,19.61
2022-10-23T18:31:50.954Z,19.50
2022-10-23T18:34:21.709Z,19.51
2022-10-23T18:36:52.737Z,19.43
2022-10-23T18:39:25.214Z,19.38
2022-10-23T18:41:57.286Z,19.29
2022-10-23T18:44:29.167Z,19.27
2022-10-23T18:47:01.471Z,19.28
2022-10-23T18:49:30.301Z,19.23
2022-10-23T18:51:59.234Z,19.14
2022-10-23T18:54:27.902Z,19.07
2022-10-23T18:56:56.365Z,19.16
2022-10-23T18:59:24.975Z,19.15
2022-10-23T19:01:54.126Z,19.13
2022-10-23T19:04:24.047Z,19.11
2022-10-23T19:06:52.874Z,19.13
2022-10-23T19:09:22.021Z,19.06
2022-10-23T19:11:50.926Z,19.08
2022-10-23T19:14:18.994Z,18.56
2022-10-23T19:16:58.835Z,19.05
2022-10-23T19:19:33.685Z,18.91
2022-10-23T19:22:04.235Z,19.00
2022-10-23T19:24:39.608Z,18.92
2022-10-23T19:27:08.465Z,18.84
2022-10-23T19:29:40.687Z,18.72
2022-10-23T19:32:09.351Z,18.59
2022-10-23T19:34:40.010Z,18.63
2022-10-23T19:37:08.352Z,18.55
2022-10-23T19:39:37.226Z,18.46
2022-10-23T19:42:05.520Z,18.29
2022-10-23T19:44:33.919Z,18.25
2022-10-23T19:47:04.210Z,18.32
2022-10-23T19:49:32.668Z,18.23
2022-10-23T19:52:02.258Z,18.23
2022-10-23T19:54:31.128Z,17.38
2022-10-23T19:57:02.399Z,17.48
2022-10-23T19:59:30.418Z,17.72
2022-10-23T20:01:58.955Z,17.69
2022-10-23T20:04:29.074Z,17.71
2022-10-23T20:06:58.808Z,17.69
2022-10-23T20:09:28.737Z,17.76
2022-10-23T20:11:56.967Z,17.71
2022-10-23T20:14:25.254Z,17.47
2022-10-23T20:16:56.094Z,17.34
2022-10-23T20:19:24.630Z,17.08
2022-10-23T20:21:52.839Z,17.55
2022-10-23T20:24:22.326Z,17.57
2022-10-23T20:26:54.446Z,17.33
2022-10-23T20:29:23.756Z,17.45
2022-10-23T20:31:52.616Z,17.17
2022-10-23T20:34:21.358Z,17.15
2022-10-23T20:36:51.959Z,17.12
2022-10-23T20:39:25.492Z,16.74
2022-10-23T20:41:56.827Z,16.70
2022-10-23T20:44:26.338Z,16.48
2022-10-23T20:46:55.603Z,16.51
2022-10-23T20:49:24.680Z,16.57
2022-10-23T20:51:55.635Z,15.97
2022-10-23T20:54:24.658Z,16.00
2022-10-23T20:56:54.663Z,16.01
2022-10-23T20:59:23.782Z,15.54
2022-10-23T21:01:54.091Z,15.16
2022-10-23T21:04:24.342Z,15.26
2022-10-23T21:07:10.795Z,15.40
2022-10-23T21:09:40.156Z,15.54
2022-10-23T21:12:11.305Z,15.43
2022-10-23T21:14:40.054Z,15.32
2022-10-23T21:17:10.900Z,14.80
2022-10-23T21:19:41.072Z,14.63
2022-10-23T21:22:09.681Z,15.23
2022-10-23T21:24:38.559Z,15.42
2022-10-23T21:27:07.007Z,15.17
2022-10-23T21:29:37.836Z,15.30
2022-10-23T21:32:06.592Z,15.26
2022-10-23T21:34:35.265Z,14.78
2022-10-23T21:37:12.929Z,14.24
2022-10-23T21:39:43.557Z,14.64
2022-10-23T21:42:12.392Z,14.31
2022-10-23T21:44:43.557Z,14.24
2022-10-23T21:47:11.842Z,14.15
2022-10-23T21:49:40.458Z,14.31
2022-10-23T21:52:09.275Z,14.60
2022-10-23T21:54:38.522Z,14.59
2022-10-23T21:57:07.100Z,14.65
2022-10-23T21:59:36.281Z,14.74
2022-10-23T22:02:06.838Z,14.64
2022-10-23T22:04:35.919Z,14.70
2022-10-23T22:07:04.380Z,14.59
2022-10-23T22:09:34.454Z,14.06
2022-10-23T22:12:04.466Z,14.28
2022-10-23T22:14:33.269Z,14.38
2022-10-23T22:17:02.371Z,14.15
2022-10-23T22:19:32.419Z,13.83
2022-10-23T22:22:00.629Z,13.88
2022-10-23T22:24:29.007Z,13.61
2022-10-23T22:26:59.411Z,13.58
2022-10-23T22:29:29.803Z,13.88
2022-10-23T22:31:58.697Z,13.72
2022-10-23T22:37:19.910Z,12.64
2022-10-23T22:39:51.209Z,12.95
2022-10-23T22:42:20.389Z,13.03
2022-10-23T22:44:48.461Z,12.59
2022-10-23T22:47:17.217Z,12.51
2022-10-23T22:49:45.792Z,12.35
2022-10-23T22:52:14.459Z,12.69
2022-10-23T22:54:44.591Z,12.85
2022-10-23T22:57:13.476Z,12.52
2022-10-23T22:59:42.406Z,12.52
2022-10-23T23:02:11.410Z,12.40
2022-10-23T23:04:39.671Z,12.71
2022-10-23T23:07:08.797Z,12.70
2022-10-23T23:09:39.066Z,12.59
2022-10-23T23:12:11.108Z,12.46
2022-10-23T23:14:39.779Z,12.68
2022-10-23T23:17:09.602Z,12.83
2022-10-23T23:19:38.619Z,12.76
2022-10-23T23:22:07.690Z,12.88
2022-10-23T23:24:36.509Z,12.76
2022-10-23T23:27:05.178Z,12.79
2022-10-23T23:29:35.553Z,12.58
2022-10-23T23:32:06.075Z,12.72
2022-10-23T23:34:34.148Z,12.78
2022-10-23T23:37:02.738Z,12.88
2022-10-23T23:39:30.965Z,12.89
2022-10-23T23:41:59.470Z,12.77
2022-10-23T23:44:27.601Z,12.39
2022-10-23T23:46:58.627Z,12.58
2022-10-23T23:49:26.978Z,12.60
2022-10-23T23:51:55.097Z,12.44
2022-10-23T23:54:23.469Z,12.55
2022-10-23T23:56:52.951Z,12.60
2022-10-23T23:59:21.480Z,12.33
